| Date | Time | Temp. (oF) | Dew Point (oF) | Rel. Hum. (%) | Press. (in.) | Wind Dir. | Wind Speed (mph) | Hourly Rainfall (in.) |
|
|---|---|---|---|---|---|---|---|---|---|
| 1 | 07/18 | 00:00 | 77 | 69 | 77 | 30.06 | ENE | 0 | 0.00 |
| 2 | 07/17 | 23:00 | 78 | 68 | 73 | 30.07 | E | 0 | 0.00 |
| 3 | 07/17 | 22:00 | 80 | 68 | 69 | 30.07 | ENE | 2 | 0.00 |
| 4 | 07/17 | 21:00 | 84 | 71 | 67 | 30.04 | NNE | 6 | 0.00 |
| 5 | 07/17 | 20:00 | 87 | 71 | 61 | 30.03 | E | 2 | 0.00 |
| 6 | 07/17 | 19:00 | 90 | 70 | 54 | 30.04 | WNW | 0 | 0.00 |
| 7 | 07/17 | 18:00 | 90 | 68 | 50 | 30.05 | NW | 0 | 0.00 |
| 8 | 07/17 | 17:00 | 91 | 68 | 48 | 30.05 | SSW | 0 | 0.00 |
| 9 | 07/17 | 16:00 | 93 | 69 | 47 | 30.06 | SSE | 0 | 0.00 |
| 10 | 07/17 | 15:00 | 91 | 68 | 48 | 30.08 | WSW | 5 | 0.00 |
| 11 | 07/17 | 14:00 | 91 | 66 | 45 | 30.10 | SW | 4 | 0.00 |
| 12 | 07/17 | 13:00 | 90 | 69 | 52 | 30.12 | NW | 1 | 0.00 |
| 13 | 07/17 | 12:00 | 87 | 71 | 60 | 30.13 | N | 5 | 0.00 |
| 14 | 07/17 | 11:00 | 85 | 68 | 58 | 30.12 | SSE | 2 | 0.00 |
| 15 | 07/17 | 10:00 | 83 | 69 | 63 | 30.14 | SW | 2 | 0.00 |
| 16 | 07/17 | 09:00 | 78 | 69 | 75 | 30.15 | WNW | 0 | 0.00 |
| 17 | 07/17 | 08:00 | 70 | 68 | 94 | 30.14 | SSE | 0 | 0.00 |
| 18 | 07/17 | 07:00 | 66 | 65 | 99 | 30.14 | SSE | 0 | 0.00 |
| 19 | 07/17 | 06:00 | 66 | 65 | 98 | 30.13 | SSE | 0 | 0.00 |
| 20 | 07/17 | 05:00 | 67 | 66 | 98 | 30.12 | SSE | 0 | 0.00 |
| 21 | 07/17 | 04:00 | 66 | 65 | 97 | 30.12 | SSE | 0 | 0.00 |
| 22 | 07/17 | 03:00 | 67 | 65 | 95 | 30.12 | WSW | 0 | 0.00 |
| 23 | 07/17 | 02:00 | 68 | 66 | 94 | 30.13 | WSW | 0 | 0.00 |
| 24 | 07/17 | 01:00 | 69 | 65 | 90 | 30.13 | WSW | 0 | 0.00 |